Time;durP1;ratioP1;P1;durP2;ratioP2;P2;SDS_P1;SDS_P2;PMS_P1;PMS_P2;Temp;Humidity;BMP_temperature;BMP_pressure;BME280_temperature;BME280_humidity;BME280_pressure;Samples;Min_cycle;Max_cycle;Signal;HPM_P1;HPM_P2
2023/08/10 00:00:47;;;;;;;5.03;2.88;;;;;;;19.87;62.25;100518.09;5039755;28;20086;-59
2023/08/10 00:03:13;;;;;;;7.53;3.20;;;;;;;19.88;62.15;100520.66;5036869;28;20047;-59
2023/08/10 00:05:40;;;;;;;5.22;2.90;;;;;;;19.87;61.86;100518.09;5037892;28;20520;-58
2023/08/10 00:08:07;;;;;;;6.85;4.25;;;;;;;19.89;61.93;100513.63;5019791;28;20887;-56
2023/08/10 00:10:33;;;;;;;4.63;2.47;;;;;;;19.91;62.20;100522.31;5021596;28;20095;-57
2023/08/10 00:13:00;;;;;;;5.85;2.45;;;;;;;19.90;62.17;100518.00;5016871;28;20059;-59
2023/08/10 00:15:27;;;;;;;6.00;2.70;;;;;;;19.92;62.62;100516.16;5019084;28;20049;-59
2023/08/10 00:17:53;;;;;;;4.35;2.35;;;;;;;19.94;62.03;100516.09;5021247;28;20520;-58
2023/08/10 00:20:20;;;;;;;3.17;2.30;;;;;;;19.95;62.71;100510.78;5016795;28;20050;-57
2023/08/10 00:22:49;;;;;;;5.65;2.50;;;;;;;19.96;62.31;100512.50;5018813;28;20075;-59
2023/08/10 00:25:16;;;;;;;3.75;2.05;;;;;;;19.97;62.61;100508.97;5020067;28;20080;-59
2023/08/10 00:27:47;;;;;;;4.95;2.20;;;;;;;19.98;62.66;100510.69;5019836;28;20045;-59
2023/08/10 00:30:15;;;;;;;4.95;1.85;;;;;;;20.00;62.79;100513.31;5022538;28;20521;-58
2023/08/10 00:32:41;;;;;;;4.20;2.70;;;;;;;20.00;62.47;100508.88;5018203;28;20049;-58
2023/08/10 00:35:08;;;;;;;5.00;2.28;;;;;;;20.02;62.47;100512.34;5018919;28;20052;-59
2023/08/10 00:37:36;;;;;;;4.53;3.00;;;;;;;20.03;62.12;100507.94;5022174;28;20049;-58
2023/08/10 00:40:03;;;;;;;9.27;2.40;;;;;;;20.03;62.47;100506.16;5016508;28;20048;-57
2023/08/10 00:42:29;;;;;;;6.68;2.83;;;;;;;20.03;62.70;100508.78;5014731;28;20052;-57
2023/08/10 00:44:56;;;;;;;10.90;2.88;;;;;;;20.04;62.35;100509.66;5017037;28;20042;-59
2023/08/10 00:47:25;;;;;;;5.78;3.05;;;;;;;20.03;62.61;100503.53;5020685;28;20061;-59
2023/08/10 00:49:53;;;;;;;5.32;1.85;;;;;;;20.04;62.78;100509.66;5017700;28;20045;-59
2023/08/10 00:52:20;;;;;;;4.60;2.33;;;;;;;20.04;62.52;100505.22;5033949;28;20098;-57
2023/08/10 00:54:47;;;;;;;4.30;2.60;;;;;;;20.05;62.54;100511.34;5027228;28;20414;-56
2023/08/10 00:57:14;;;;;;;4.65;2.10;;;;;;;20.04;62.98;100510.50;5029106;28;20495;-58
2023/08/10 00:59:41;;;;;;;4.18;2.40;;;;;;;20.03;63.10;100515.84;5033316;28;20561;-60
2023/08/10 01:02:09;;;;;;;6.10;2.30;;;;;;;20.02;63.13;100504.44;5018921;28;20057;-58
2023/08/10 01:04:36;;;;;;;3.10;2.33;;;;;;;20.02;63.46;100517.59;5022142;28;20662;-59
2023/08/10 01:10:06;;;;;;;2.88;2.00;;;;;;;19.99;63.00;100512.44;5087199;27;20411;-58
2023/08/10 01:12:59;;;;;;;2.47;1.65;;;;;;;19.98;63.22;100507.19;5068162;28;20044;-58
2023/08/10 01:18:14;;;;;;;3.95;3.20;;;;;;;19.96;63.63;100501.97;5063678;28;20418;-59
2023/08/10 01:20:43;;;;;;;4.05;3.15;;;;;;;19.95;63.29;100505.53;5042052;28;20059;-58
2023/08/10 01:23:35;;;;;;;3.90;3.08;;;;;;;19.91;63.52;100498.66;5038146;28;20053;-59
2023/08/10 01:26:02;;;;;;;3.90;3.30;;;;;;;19.88;63.41;100507.53;5046815;28;20056;-56
2023/08/10 01:28:32;;;;;;;3.78;3.47;;;;;;;19.84;63.73;100502.41;5042717;28;20076;-54
2023/08/10 01:31:00;;;;;;;3.65;3.17;;;;;;;19.80;63.64;100506.06;5039241;28;20111;-59
2023/08/10 01:33:29;;;;;;;4.40;3.08;;;;;;;19.74;63.38;100508.00;5043294;28;20049;-57
2023/08/10 01:35:56;;;;;;;4.40;4.00;;;;;;;19.71;63.31;100513.34;5041848;28;20069;-59
2023/08/10 01:38:23;;;;;;;5.22;3.47;;;;;;;19.66;63.65;100504.78;5039148;28;20725;-57
2023/08/10 01:40:51;;;;;;;4.38;3.97;;;;;;;19.63;63.64;100510.97;5045290;28;20049;-57
2023/08/10 01:43:18;;;;;;;3.53;2.88;;;;;;;19.59;63.34;100508.50;5043921;28;20600;-59
2023/08/10 01:45:48;;;;;;;4.22;3.83;;;;;;;19.56;63.75;100514.72;5045270;28;20068;-55
2023/08/10 01:48:20;;;;;;;5.38;4.88;;;;;;;19.49;63.67;100514.06;5038503;28;20115;-57
2023/08/10 01:50:51;;;;;;;3.78;3.42;;;;;;;19.45;63.46;100512.44;5037979;28;20053;-59
2023/08/10 01:53:26;;;;;;;3.55;3.25;;;;;;;19.39;63.27;100510.03;5040491;28;20540;-58
2023/08/10 01:55:52;;;;;;;3.25;2.78;;;;;;;19.35;63.75;100513.66;5045048;28;20060;-58
2023/08/10 01:58:19;;;;;;;4.07;3.08;;;;;;;19.31;63.43;100509.38;5040829;28;20056;-59
2023/08/10 02:00:46;;;;;;;4.47;3.67;;;;;;;19.27;63.57;100514.75;5042692;28;20308;-59
2023/08/10 02:03:12;;;;;;;3.75;3.08;;;;;;;19.23;64.07;100502.63;5029516;28;20079;-59
2023/08/10 02:05:39;;;;;;;3.30;2.72;;;;;;;19.19;63.71;100501.03;5034774;28;20053;-57
2023/08/10 02:08:07;;;;;;;3.53;3.00;;;;;;;19.18;64.10;100508.94;5039337;28;20057;-53
2023/08/10 02:10:34;;;;;;;4.57;3.25;;;;;;;19.12;63.98;100504.75;5039382;28;20053;-59
2023/08/10 02:13:00;;;;;;;3.47;3.17;;;;;;;19.08;63.77;100497.88;5039701;28;20053;-54
2023/08/10 02:15:27;;;;;;;4.05;3.38;;;;;;;19.04;64.30;100496.22;5037814;28;20052;-57
2023/08/10 02:17:54;;;;;;;4.60;2.00;;;;;;;19.01;63.90;100492.78;5040807;28;20418;-58
2023/08/10 02:20:21;;;;;;;4.28;2.72;;;;;;;18.97;64.06;100483.28;5039187;28;20048;-59
2023/08/10 02:22:51;;;;;;;3.25;2.95;;;;;;;18.97;64.10;100491.16;5037532;28;20095;-57
2023/08/10 02:25:19;;;;;;;9.98;3.08;;;;;;;18.95;64.76;100492.94;5039651;28;20552;-58
2023/08/10 02:27:47;;;;;;;3.72;2.85;;;;;;;18.93;64.52;100489.53;5032418;28;20065;-53
2023/08/10 02:30:15;;;;;;;3.40;2.50;;;;;;;18.90;64.38;100484.38;5029652;28;20490;-57
2023/08/10 02:32:42;;;;;;;3.78;3.42;;;;;;;18.87;64.67;100487.94;5026696;28;20052;-58
2023/08/10 02:35:09;;;;;;;3.35;2.90;;;;;;;18.83;64.93;100482.81;5019322;28;20053;-57
2023/08/10 02:37:36;;;;;;;4.20;3.35;;;;;;;18.81;64.36;100492.53;5023532;28;20099;-58
2023/08/10 02:40:04;;;;;;;3.28;1.92;;;;;;;18.78;64.48;100493.47;5025226;28;20404;-59
2023/08/10 02:42:31;;;;;;;3.78;3.15;;;;;;;18.75;64.80;100497.03;5025775;28;20048;-54
2023/08/10 02:44:58;;;;;;;4.75;4.32;;;;;;;18.72;64.52;100497.16;5023516;28;20049;-59
2023/08/10 02:47:25;;;;;;;4.90;3.78;;;;;;;18.70;64.59;100498.94;5027253;28;20100;-59
2023/08/10 02:49:52;;;;;;;5.53;5.03;;;;;;;18.70;64.98;100492.81;5027499;28;20513;-58
2023/08/10 02:52:19;;;;;;;4.38;3.78;;;;;;;18.68;64.85;100492.88;5028367;28;20048;-57
2023/08/10 02:54:45;;;;;;;4.25;3.60;;;;;;;18.66;64.61;100491.19;5027248;28;20057;-58
2023/08/10 02:57:12;;;;;;;4.20;3.38;;;;;;;18.61;65.06;100484.31;5027336;28;20037;-56
2023/08/10 02:59:39;;;;;;;6.38;3.45;;;;;;;18.60;65.08;100489.63;5024592;28;20494;-58
2023/08/10 03:02:06;;;;;;;4.22;3.78;;;;;;;18.58;64.78;100486.19;5025566;28;20073;-58
2023/08/10 03:04:33;;;;;;;5.60;4.28;;;;;;;18.57;65.35;100479.22;5015611;28;20083;-57
2023/08/10 03:07:00;;;;;;;5.18;3.85;;;;;;;18.54;65.07;100481.94;5020029;28;20045;-57
2023/08/10 03:09:27;;;;;;;5.97;3.63;;;;;;;18.52;65.20;100475.88;5025147;28;20045;-58
2023/08/10 03:11:54;;;;;;;6.70;3.28;;;;;;;18.48;64.91;100468.09;5022790;28;20053;-58
2023/08/10 03:14:21;;;;;;;5.03;3.55;;;;;;;18.46;65.73;100474.28;5021341;28;20089;-58
2023/08/10 03:16:47;;;;;;;8.00;4.28;;;;;;;18.43;65.78;100467.38;5024488;28;20091;-59
2023/08/10 03:19:14;;;;;;;4.20;3.42;;;;;;;18.41;65.47;100471.78;5026891;28;20052;-57
2023/08/10 03:21:41;;;;;;;4.05;3.63;;;;;;;18.37;65.66;100473.66;5029114;28;20100;-57
2023/08/10 03:24:07;;;;;;;3.97;3.58;;;;;;;18.36;64.98;100473.69;5026190;28;20147;-56
2023/08/10 03:26:34;;;;;;;5.25;4.63;;;;;;;18.32;65.24;100466.81;5025210;28;20046;-56
2023/08/10 03:29:01;;;;;;;4.40;3.65;;;;;;;18.27;65.39;100466.94;5017488;28;20057;-58
2023/08/10 03:31:29;;;;;;;6.15;4.65;;;;;;;18.23;65.43;100463.56;5013103;28;20513;-58
2023/08/10 03:33:55;;;;;;;5.25;4.25;;;;;;;18.20;65.44;100462.78;5022409;28;20045;-57
2023/08/10 03:36:22;;;;;;;5.95;4.22;;;;;;;18.17;65.89;100462.88;5020876;28;20049;-58
2023/08/10 03:38:49;;;;;;;5.53;4.05;;;;;;;18.13;66.20;100461.25;5025285;28;20049;-58
2023/08/10 03:41:16;;;;;;;5.25;4.00;;;;;;;18.10;65.92;100456.91;5021612;28;20045;-59
2023/08/10 03:43:42;;;;;;;6.10;3.78;;;;;;;18.07;65.95;100462.25;5023874;28;20267;-59
2023/08/10 03:46:09;;;;;;;5.72;4.65;;;;;;;18.03;66.13;100450.13;5026974;28;20057;-56
2023/08/10 03:48:36;;;;;;;6.32;4.65;;;;;;;18.01;66.37;100449.28;5025492;28;20049;-59
2023/08/10 03:51:03;;;;;;;8.60;4.38;;;;;;;17.98;66.35;100469.47;5026239;28;20049;-62
2023/08/10 03:53:29;;;;;;;6.70;4.15;;;;;;;17.97;66.69;100459.84;5027672;28;20069;-58
2023/08/10 03:55:56;;;;;;;5.70;4.22;;;;;;;17.94;66.49;100454.69;5029276;28;20056;-58
2023/08/10 03:58:23;;;;;;;4.40;3.70;;;;;;;17.92;66.60;100453.88;5025996;28;20055;-59
2023/08/10 04:00:50;;;;;;;5.35;4.22;;;;;;;17.89;66.00;100443.47;5026762;28;20041;-57
2023/08/10 04:03:17;;;;;;;6.45;4.32;;;;;;;17.86;66.25;100448.81;5024640;28;20059;-58
2023/08/10 04:05:44;;;;;;;5.00;3.70;;;;;;;17.84;66.21;100445.38;5021685;28;20048;-57
2023/08/10 04:08:11;;;;;;;6.60;3.10;;;;;;;17.82;66.02;100447.16;5028240;28;20484;-56
2023/08/10 04:10:37;;;;;;;9.57;4.78;;;;;;;17.79;66.17;100447.25;5022045;28;20056;-58
2023/08/10 04:13:05;;;;;;;8.80;4.78;;;;;;;17.77;66.44;100446.44;5024188;28;20053;-54
2023/08/10 04:15:32;;;;;;;7.32;4.43;;;;;;;17.75;66.65;100445.59;5020616;28;20502;-58
2023/08/10 04:17:58;;;;;;;17.90;5.30;;;;;;;17.72;67.14;100449.16;5023443;28;20499;-57
2023/08/10 04:20:25;;;;;;;8.98;5.18;;;;;;;17.69;66.79;100441.38;5022807;28;20037;-57
2023/08/10 04:22:52;;;;;;;9.10;4.88;;;;;;;17.66;66.49;100451.97;5020669;28;20076;-57
2023/08/10 04:25:19;;;;;;;5.35;4.10;;;;;;;17.64;66.24;100452.00;5021800;28;20406;-57
2023/08/10 04:27:46;;;;;;;7.05;4.32;;;;;;;17.62;67.20;100447.72;5017146;28;20057;-59
2023/08/10 04:30:14;;;;;;;6.53;4.90;;;;;;;17.59;67.51;100452.13;5023321;28;20079;-57
2023/08/10 04:32:41;;;;;;;7.32;4.60;;;;;;;17.57;67.31;100450.44;5023375;28;20053;-59
2023/08/10 04:35:11;;;;;;;6.43;3.97;;;;;;;17.54;66.77;100447.88;5017420;28;20486;-59
2023/08/10 04:37:38;;;;;;;7.97;3.58;;;;;;;17.51;67.31;100451.44;5023761;28;20061;-58
2023/08/10 04:40:09;;;;;;;7.85;4.20;;;;;;;17.50;66.59;100456.72;5014678;28;20049;-59
2023/08/10 04:42:39;;;;;;;7.80;4.38;;;;;;;17.47;66.81;100448.03;5025651;28;20140;-58
2023/08/10 04:45:09;;;;;;;5.75;4.43;;;;;;;17.45;67.54;100449.84;5020309;28;20140;-58
2023/08/10 04:47:36;;;;;;;;;;;;;;;17.24;66.92;100447.75;5022625;28;20128;-58
2023/08/10 04:50:03;;;;;;;6.65;4.07;;;;;;;17.38;67.33;100443.03;5020283;28;19937;-57
2023/08/10 04:52:29;;;;;;;10.70;5.95;;;;;;;17.40;66.52;100456.97;5023661;28;20049;-58
2023/08/10 04:54:56;;;;;;;8.82;4.70;;;;;;;17.40;67.87;100454.34;5021732;28;20041;-55
2023/08/10 04:57:23;;;;;;;7.75;5.22;;;;;;;17.40;67.60;100456.97;5025596;28;20048;-57
2023/08/10 04:59:50;;;;;;;8.43;5.57;;;;;;;17.41;67.17;100458.69;5021839;28;20053;-59
2023/08/10 05:02:17;;;;;;;8.15;5.35;;;;;;;17.42;67.57;100464.75;5019772;28;20545;-55
2023/08/10 05:04:44;;;;;;;6.40;4.65;;;;;;;17.42;67.40;100463.00;5025210;28;20579;-58
2023/08/10 05:07:11;;;;;;;11.45;4.90;;;;;;;17.43;67.24;100463.88;5025292;28;20046;-55
2023/08/10 05:09:38;;;;;;;8.05;5.15;;;;;;;17.44;67.87;100462.97;5021831;28;20052;-57
2023/08/10 05:12:21;;;;;;;7.43;4.88;;;;;;;17.43;67.73;100461.25;5028062;28;20056;-57
2023/08/10 05:14:48;;;;;;;6.55;4.40;;;;;;;17.44;67.84;100469.09;5021183;28;20781;-55
2023/08/10 05:17:15;;;;;;;6.43;4.18;;;;;;;17.46;68.10;100467.28;5018374;28;20042;-57
2023/08/10 05:19:42;;;;;;;5.65;4.28;;;;;;;17.46;66.80;100462.03;5023189;28;20054;-56
2023/08/10 05:22:09;;;;;;;7.22;5.13;;;;;;;17.47;67.47;100473.38;5023944;28;20098;-55
2023/08/10 05:24:36;;;;;;;7.63;4.70;;;;;;;17.47;67.87;100468.13;5022178;28;20046;-57
2023/08/10 05:27:03;;;;;;;7.45;5.55;;;;;;;17.47;67.76;100466.38;5024207;28;20073;-58
2023/08/10 05:29:30;;;;;;;8.27;4.93;;;;;;;17.51;68.46;100474.16;5021347;28;20495;-57
2023/08/10 05:31:57;;;;;;;9.57;4.75;;;;;;;17.52;67.74;100454.91;5015516;28;20056;-56
2023/08/10 05:34:24;;;;;;;7.63;4.70;;;;;;;17.56;68.76;100459.19;5019094;28;20443;-58
2023/08/10 05:36:51;;;;;;;6.57;5.35;;;;;;;17.64;68.90;100465.09;5022544;28;20060;-58
2023/08/10 05:39:18;;;;;;;7.90;4.60;;;;;;;17.76;68.88;100463.06;5013257;28;20104;-56
2023/08/10 05:41:45;;;;;;;7.40;4.95;;;;;;;17.92;68.74;100468.75;5021831;28;20054;-59
2023/08/10 05:44:12;;;;;;;7.78;5.07;;;;;;;18.08;68.97;100469.19;5014859;28;20116;-56
2023/08/10 05:46:39;;;;;;;7.13;4.13;;;;;;;18.23;68.70;100468.81;5017587;28;20083;-55
2023/08/10 05:49:06;;;;;;;6.15;4.40;;;;;;;18.42;69.36;100473.53;5018661;28;20055;-55
2023/08/10 05:51:32;;;;;;;7.63;3.17;;;;;;;18.59;69.28;100474.78;5021304;28;20453;-54
2023/08/10 05:53:59;;;;;;;6.38;4.30;;;;;;;18.75;68.72;100483.91;5019384;28;20173;-58
2023/08/10 05:56:26;;;;;;;7.28;3.97;;;;;;;18.92;68.49;100486.94;5019164;28;20049;-58
2023/08/10 05:58:52;;;;;;;4.82;3.88;;;;;;;19.04;68.21;100481.31;5022231;28;20050;-58
2023/08/10 06:01:21;;;;;;;6.80;5.10;;;;;;;19.15;67.89;100470.50;5015191;28;20502;-58
2023/08/10 06:03:48;;;;;;;7.60;4.72;;;;;;;19.16;67.44;100482.72;5015892;28;20122;-55
2023/08/10 06:06:16;;;;;;;6.70;5.05;;;;;;;19.11;67.15;100482.00;5021276;28;20045;-56
2023/08/10 06:08:44;;;;;;;7.05;4.13;;;;;;;19.06;67.29;100490.03;5025447;28;20061;-57
2023/08/10 06:11:11;;;;;;;6.05;4.22;;;;;;;19.02;67.20;100491.84;5022182;28;20055;-53
2023/08/10 06:13:39;;;;;;;7.60;4.85;;;;;;;19.01;67.48;100492.78;5023724;28;20050;-53
2023/08/10 06:16:06;;;;;;;6.20;4.50;;;;;;;19.00;67.42;100493.69;5017574;28;20053;-58
2023/08/10 06:18:34;;;;;;;6.35;5.30;;;;;;;18.99;67.70;100494.56;5023479;28;20053;-58
2023/08/10 06:21:03;;;;;;;5.60;2.70;;;;;;;19.01;67.71;100497.16;5026248;28;20452;-53
2023/08/10 06:23:30;;;;;;;5.55;4.75;;;;;;;19.05;68.00;100492.69;5022241;28;20045;-57
2023/08/10 06:25:57;;;;;;;5.35;4.10;;;;;;;19.09;67.76;100497.81;5020124;28;20136;-58
2023/08/10 06:28:24;;;;;;;5.53;4.07;;;;;;;19.12;67.90;100499.50;5012106;28;20124;-54
2023/08/10 06:30:51;;;;;;;4.97;3.38;;;;;;;19.18;67.38;100496.66;5019963;28;20119;-57
2023/08/10 06:33:19;;;;;;;4.20;3.53;;;;;;;19.24;67.63;100499.09;5022871;28;20046;-58
2023/08/10 06:35:46;;;;;;;5.30;3.10;;;;;;;19.35;67.85;100493.50;5020511;28;20054;-58
2023/08/10 06:38:13;;;;;;;4.88;2.67;;;;;;;19.70;67.71;100501.13;5021539;28;20414;-57
2023/08/10 06:40:40;;;;;;;8.13;3.75;;;;;;;20.11;67.64;100494.50;5022770;28;20045;-58
2023/08/10 06:43:07;;;;;;;5.40;3.20;;;;;;;20.59;67.65;100507.69;5019636;28;20053;-57
2023/08/10 06:45:34;;;;;;;3.42;3.13;;;;;;;21.03;67.98;100505.16;5023645;28;20395;-57
2023/08/10 06:48:01;;;;;;;4.20;2.67;;;;;;;21.47;67.19;100503.44;5017647;28;20045;-58
2023/08/10 06:50:28;;;;;;;3.13;2.35;;;;;;;21.91;65.79;100512.19;5018718;28;20418;-58
2023/08/10 06:52:54;;;;;;;3.35;2.63;;;;;;;22.27;65.58;100498.31;5017219;28;20136;-58
2023/08/10 06:55:21;;;;;;;3.17;2.58;;;;;;;22.64;64.12;100500.22;5024124;28;20124;-53
2023/08/10 06:57:48;;;;;;;3.25;2.70;;;;;;;22.97;63.78;100492.50;5018403;28;20046;-57
2023/08/10 07:00:20;;;;;;;4.47;2.53;;;;;;;23.32;63.18;100497.00;5019112;28;20089;-57
2023/08/10 07:02:53;;;;;;;3.58;2.47;;;;;;;23.67;61.74;100490.06;5024074;28;20103;-57
2023/08/10 07:05:25;;;;;;;2.63;2.42;;;;;;;24.00;61.40;100494.53;5023389;28;20052;-58
2023/08/10 07:07:53;;;;;;;3.38;1.58;;;;;;;24.32;60.45;100494.66;5026294;28;20473;-54
2023/08/10 07:10:19;;;;;;;3.97;2.15;;;;;;;24.63;60.12;100490.34;5028160;28;20049;-55
2023/08/10 07:12:46;;;;;;;2.95;2.42;;;;;;;24.96;59.77;100500.97;5022221;28;20061;-56
2023/08/10 07:15:13;;;;;;;2.50;2.30;;;;;;;25.28;59.15;100501.78;5014056;28;20533;-57
2023/08/10 07:17:40;;;;;;;3.65;3.35;;;;;;;25.60;58.06;100500.88;5022490;28;20042;-57
2023/08/10 07:20:08;;;;;;;4.00;2.45;;;;;;;25.89;57.61;100500.94;5019321;28;20064;-57
2023/08/10 07:22:35;;;;;;;2.22;2.03;;;;;;;26.17;56.39;100499.25;5022728;28;20053;-56
2023/08/10 07:25:06;;;;;;;3.13;2.35;;;;;;;26.43;55.32;100504.78;5022985;28;20038;-56
2023/08/10 07:27:34;;;;;;;3.85;2.53;;;;;;;26.69;55.64;100504.06;5014901;28;20057;-56
2023/08/10 07:30:03;;;;;;;2.22;2.03;;;;;;;26.95;55.26;100505.03;5017903;28;20164;-54
2023/08/10 07:32:31;;;;;;;4.90;2.17;;;;;;;27.23;54.16;100506.88;5018330;28;20049;-57
2023/08/10 07:34:58;;;;;;;5.97;2.70;;;;;;;27.44;53.76;100510.78;5014255;28;20545;-55
2023/08/10 07:37:24;;;;;;;1.67;1.50;;;;;;;27.70;53.67;100510.00;5010643;28;20053;-57
2023/08/10 07:39:51;;;;;;;5.22;2.60;;;;;;;27.98;53.50;100508.09;5014538;28;20058;-56
2023/08/10 07:42:18;;;;;;;4.13;2.55;;;;;;;28.21;51.64;100503.84;5018658;28;20042;-58
2023/08/10 07:44:44;;;;;;;2.45;2.25;;;;;;;28.41;50.83;100498.94;5016559;28;20049;-56
2023/08/10 07:47:11;;;;;;;3.15;1.63;;;;;;;28.51;50.15;100498.28;5018853;28;20049;-56
2023/08/10 07:49:42;;;;;;;3.05;2.35;;;;;;;28.69;50.61;100501.41;5019022;28;20144;-57
2023/08/10 07:52:09;;;;;;;3.20;2.90;;;;;;;28.77;48.92;100498.22;5016632;28;20053;-55
2023/08/10 07:54:35;;;;;;;2.92;2.65;;;;;;;28.88;49.01;100495.63;5018677;28;20046;-55
2023/08/10 07:57:02;;;;;;;3.63;3.33;;;;;;;29.09;49.60;100497.69;5014023;28;20057;-59
2023/08/10 07:59:30;;;;;;;5.90;3.30;;;;;;;29.34;49.17;100498.50;5019326;28;20072;-58
2023/08/10 08:01:57;;;;;;;2.75;2.45;;;;;;;29.47;48.18;100491.28;5017183;28;20050;-57
2023/08/10 08:04:24;;;;;;;3.33;3.03;;;;;;;29.60;47.59;100501.03;5017064;28;20073;-57
2023/08/10 08:06:51;;;;;;;3.00;2.40;;;;;;;29.62;47.27;100499.13;5014439;28;20514;-58
2023/08/10 08:09:17;;;;;;;4.90;4.47;;;;;;;29.61;46.91;100492.06;5016356;28;20538;-58
2023/08/10 08:11:44;;;;;;;4.20;3.45;;;;;;;29.63;46.32;100492.81;5011701;28;20530;-57
2023/08/10 08:14:11;;;;;;;3.00;1.73;;;;;;;29.66;46.51;100495.25;5018048;28;20706;-57
2023/08/10 08:16:37;;;;;;;4.00;3.35;;;;;;;29.86;46.51;100500.84;5013762;28;20057;-58
2023/08/10 08:19:04;;;;;;;4.07;3.67;;;;;;;30.17;46.90;100493.13;5018057;28;20045;-57
2023/08/10 08:21:31;;;;;;;3.67;3.15;;;;;;;30.45;46.24;100493.59;5014307;28;20490;-58
2023/08/10 08:23:58;;;;;;;2.53;1.65;;;;;;;30.57;45.61;100488.25;5012777;28;20644;-58
2023/08/10 08:26:26;;;;;;;4.03;3.63;;;;;;;30.63;45.22;100493.09;5015489;28;20541;-58
2023/08/10 08:28:54;;;;;;;2.97;2.67;;;;;;;30.80;45.30;100490.91;5010477;28;20066;-58
2023/08/10 08:31:20;;;;;;;4.32;3.67;;;;;;;31.08;44.68;100491.28;5011402;28;20049;-58
2023/08/10 08:33:47;;;;;;;4.05;3.75;;;;;;;31.21;44.99;100488.44;5016079;28;20132;-58
2023/08/10 08:36:14;;;;;;;5.20;3.65;;;;;;;31.35;44.17;100482.81;5015310;28;20045;-57
2023/08/10 08:38:41;;;;;;;4.22;2.08;;;;;;;31.46;44.24;100491.72;5014454;28;20551;-57
2023/08/10 08:41:10;;;;;;;5.07;3.22;;;;;;;31.44;43.64;100486.50;5016221;28;20107;-58
2023/08/10 08:43:39;;;;;;;3.45;3.15;;;;;;;31.38;43.23;100481.69;5013992;28;20053;-58
2023/08/10 08:46:07;;;;;;;3.80;3.25;;;;;;;31.33;43.08;100478.56;5011096;28;20510;-57
2023/08/10 08:48:35;;;;;;;4.70;3.13;;;;;;;31.42;43.25;100480.47;5015286;28;20678;-59
2023/08/10 08:51:11;;;;;;;3.42;3.13;;;;;;;31.67;43.31;100486.38;5014649;28;20054;-59
2023/08/10 08:53:39;;;;;;;3.85;3.22;;;;;;;31.88;42.96;100482.84;5009448;28;20053;-58
2023/08/10 08:56:06;;;;;;;5.75;3.15;;;;;;;31.99;43.33;100480.13;5006507;28;20046;-57
2023/08/10 08:58:33;;;;;;;7.90;3.67;;;;;;;31.96;42.53;100482.19;5009028;28;20056;-57
2023/08/10 09:01:00;;;;;;;2.42;2.22;;;;;;;31.91;42.79;100485.28;5008477;28;20061;-57
2023/08/10 09:03:28;;;;;;;3.50;3.00;;;;;;;32.00;42.58;100487.16;5014002;28;20049;-57
2023/08/10 09:05:54;;;;;;;4.03;3.63;;;;;;;31.94;42.08;100482.31;5020256;28;20513;-56
2023/08/10 09:08:23;;;;;;;4.15;3.15;;;;;;;31.86;42.60;100479.44;5015680;28;20040;-56
2023/08/10 09:10:49;;;;;;;4.25;2.65;;;;;;;31.78;42.14;100478.28;5016257;28;20053;-58
2023/08/10 09:13:19;;;;;;;3.58;3.25;;;;;;;31.80;43.33;100476.31;5012407;28;20049;-59
2023/08/10 09:15:46;;;;;;;2.70;2.35;;;;;;;32.01;42.69;100462.06;5003355;28;20057;-59
2023/08/10 09:18:12;;;;;;;3.53;3.05;;;;;;;32.19;42.68;100459.59;5005966;28;20049;-59
2023/08/10 09:20:39;;;;;;;3.30;2.92;;;;;;;32.33;41.66;100460.19;5018232;28;20076;-57
2023/08/10 09:23:07;;;;;;;4.00;3.60;;;;;;;32.21;40.88;100456.78;5011004;28;20506;-59
2023/08/10 09:25:37;;;;;;;3.92;3.53;;;;;;;31.92;40.84;100465.56;5007499;28;20557;-58
2023/08/10 09:28:11;;;;;;;4.57;3.92;;;;;;;31.81;41.07;100456.59;5006149;28;20481;-59
2023/08/10 09:30:38;;;;;;;3.97;3.38;;;;;;;31.80;41.49;100441.50;5006975;28;20137;-59
2023/08/10 09:33:06;;;;;;;5.05;3.20;;;;;;;31.83;40.95;100442.22;5001786;28;20049;-59
2023/08/10 09:35:33;;;;;;;5.18;3.92;;;;;;;31.86;41.14;100447.31;5004958;28;20118;-59
2023/08/10 09:38:02;;;;;;;4.25;3.83;;;;;;;32.00;41.81;100463.06;5009970;28;20045;-60
2023/08/10 09:40:30;;;;;;;5.38;3.45;;;;;;;31.88;40.44;100456.91;5012380;28;20049;-60
2023/08/10 09:42:56;;;;;;;3.20;2.90;;;;;;;31.74;41.04;100452.75;5004442;28;20060;-60
2023/08/10 09:45:23;;;;;;;5.22;3.83;;;;;;;31.67;40.60;100455.13;5013010;28;20049;-59
2023/08/10 09:47:55;;;;;;;4.80;3.47;;;;;;;31.71;40.84;100455.69;5012722;28;20096;-58
2023/08/10 09:50:23;;;;;;;3.58;3.28;;;;;;;31.76;40.78;100453.47;5012683;28;20049;-59
2023/08/10 09:52:52;;;;;;;5.78;3.42;;;;;;;31.96;40.63;100445.56;5012342;28;20049;-60
2023/08/10 09:55:19;;;;;;;3.63;3.33;;;;;;;32.01;40.30;100443.31;5014998;28;20045;-59
2023/08/10 09:57:47;;;;;;;3.63;3.33;;;;;;;32.15;41.01;100435.91;5020735;28;20161;-59
2023/08/10 10:00:18;;;;;;;5.93;4.18;;;;;;;32.20;40.82;100447.06;5018557;28;20050;-60
2023/08/10 10:02:47;;;;;;;4.43;3.50;;;;;;;31.96;40.07;100448.25;5015212;28;20510;-59
2023/08/10 10:05:17;;;;;;;3.10;2.80;;;;;;;31.61;39.66;100446.78;5021891;28;20049;-59
2023/08/10 10:08:04;;;;;;;3.45;2.13;;;;;;;31.22;39.93;100445.50;5019641;28;20426;-59
2023/08/10 10:10:35;;;;;;;5.22;2.75;;;;;;;31.16;40.27;100440.66;5015410;28;20045;-60
2023/08/10 10:13:06;;;;;;;3.58;2.70;;;;;;;31.00;40.21;100449.97;5016294;28;20065;-59
2023/08/10 10:15:36;;;;;;;3.40;2.95;;;;;;;30.83;40.72;100439.84;5009461;28;20049;-60
2023/08/10 10:18:04;;;;;;;4.57;3.20;;;;;;;30.71;40.75;100436.31;5017741;28;20076;-59
2023/08/10 10:20:34;;;;;;;3.30;3.00;;;;;;;30.47;40.80;100432.88;5018306;28;21082;-59
2023/08/10 10:23:02;;;;;;;4.70;1.60;;;;;;;30.02;41.17;100429.25;5019105;28;20418;-61
2023/08/10 10:25:29;;;;;;;3.28;2.97;;;;;;;29.81;41.63;100422.94;5016578;28;20084;-60
2023/08/10 10:27:56;;;;;;;4.20;3.83;;;;;;;29.72;42.23;100422.69;5020304;28;20048;-60
2023/08/10 10:30:24;;;;;;;3.95;3.25;;;;;;;29.85;42.85;100416.41;5016601;28;20049;-60
2023/08/10 10:32:51;;;;;;;3.65;3.35;;;;;;;30.10;43.65;100417.13;5013567;28;20126;-59
2023/08/10 10:35:23;;;;;;;4.65;4.18;;;;;;;30.30;42.57;100422.69;5010819;28;20123;-59
2023/08/10 10:37:55;;;;;;;4.03;2.63;;;;;;;30.30;41.65;100434.25;5011424;28;20050;-59
2023/08/10 10:40:23;;;;;;;3.42;3.22;;;;;;;30.20;42.00;100427.94;5008799;28;20045;-59
2023/08/10 10:45:43;;;;;;;2.60;1.70;;;;;;;30.22;42.89;100418.81;5011301;28;20415;-60
2023/08/10 10:48:11;;;;;;;2.42;1.42;;;;;;;30.43;43.11;100434.09;4990945;28;20055;-60
2023/08/10 10:50:38;;;;;;;3.00;1.70;;;;;;;30.48;42.01;100442.59;4992739;28;20061;-59
2023/08/10 10:53:12;;;;;;;2.78;1.48;;;;;;;30.44;41.42;100441.16;4991737;28;20056;-59
2023/08/10 10:55:43;;;;;;;2.65;1.45;;;;;;;30.38;41.68;100425.59;4987135;28;20487;-59
2023/08/10 10:58:12;;;;;;;2.15;1.13;;;;;;;30.40;41.42;100431.69;4991231;28;20046;-59
2023/08/10 11:00:40;;;;;;;4.00;1.40;;;;;;;30.39;41.57;100417.47;4996079;28;20076;-59
2023/08/10 11:03:09;;;;;;;2.30;1.52;;;;;;;30.29;41.41;100424.50;4985487;28;20054;-58
2023/08/10 11:05:36;;;;;;;;;;;;;;;30.18;41.64;100421.84;4981144;28;20807;-58
2023/08/10 11:08:06;;;;;;;2.88;1.58;;;;;;;30.23;41.82;100423.19;4980589;28;19929;-59
2023/08/10 11:10:35;;;;;;;2.03;1.65;;;;;;;30.26;41.85;100417.59;4985647;28;20098;-58
2023/08/10 11:13:04;;;;;;;;;;;;;;;29.88;41.51;100413.47;4983839;28;20074;-59
2023/08/10 11:15:32;;;;;;;2.75;1.63;;;;;;;30.13;42.08;100416.88;4984885;28;19929;-59
2023/08/10 11:17:59;;;;;;;2.03;1.23;;;;;;;30.40;42.20;100418.31;4987870;28;20062;-60
2023/08/10 11:20:26;;;;;;;2.03;1.38;;;;;;;30.48;41.63;100405.19;4985165;28;20149;-59
2023/08/10 11:22:53;;;;;;;4.30;1.35;;;;;;;30.63;41.55;100412.91;4985809;28;20065;-60
2023/08/10 11:25:25;;;;;;;2.55;1.40;;;;;;;30.77;41.51;100409.13;4986679;28;20042;-60
2023/08/10 11:27:54;;;;;;;2.95;1.40;;;;;;;30.86;40.69;100408.34;4989742;28;20065;-60
2023/08/10 11:30:22;;;;;;;3.88;1.58;;;;;;;30.89;41.31;100413.44;4992594;28;20050;-60
2023/08/10 11:32:51;;;;;;;3.55;1.48;;;;;;;31.04;41.38;100403.28;4993885;28;20050;-59
2023/08/10 11:35:19;;;;;;;3.20;1.60;;;;;;;31.10;40.75;100401.09;4989334;28;20045;-59
2023/08/10 11:37:48;;;;;;;2.42;1.30;;;;;;;31.25;40.51;100402.44;4994041;28;20137;-59